.
WxDataArchive / Data Records for 2011-01-29
2011-01-28 January 2011 2011-01-30

Data Records for Saturday, 29 January 2011

Time	Temp	Chill	HIndex	Humid	Dewpt	 Wind 	HiWind	WindDir	Rain 	Barom 
-----	----	-----	------	-----	-----	------	------	-------	-----	----- 
00:00	23.9	23.9	23.9	83	19.5	0	2	112	0.00	29.901 
00:05	23.9	23.9	23.9	83	19.5	0	3	112	0.00	29.901 
00:10	23.8	23.8	23.8	83	19.4	0	3	112	0.00	29.901 
00:15	23.8	23.8	23.8	83	19.4	0	1	112	0.00	29.899 
00:20	23.8	23.8	23.8	83	19.4	0	3	112	0.00	29.899 
00:25	23.8	23.8	23.8	83	19.4	0	3	112	0.00	29.899 
00:30	23.8	23.8	23.8	83	19.4	0	2	112	0.00	29.897 
00:35	23.8	23.8	23.8	83	19.4	0	2	112	0.00	29.897 
00:40	23.8	23.8	23.8	83	19.4	1	3	112	0.00	29.897 
00:45	23.8	23.8	23.8	83	19.4	0	3	90	0.00	29.894 
00:50	23.8	23.8	23.8	83	19.4	0	2	90	0.00	29.894 
00:55	23.8	23.8	23.8	83	19.4	1	4	90	0.00	29.894 
01:00	23.8	23.8	23.8	83	19.4	0	1	112	0.00	29.890 
01:05	23.8	23.8	23.8	83	19.4	0	1	112	0.00	29.890 
01:10	23.8	23.8	23.8	83	19.4	0	2	112	0.00	29.890 
01:15	23.8	23.8	23.8	83	19.4	0	1	112	0.00	29.886 
01:20	23.8	23.8	23.8	83	19.4	0	1	112	0.00	29.886 
01:25	23.8	23.8	23.8	83	19.4	0	1	112	0.00	29.886 
01:30	23.8	23.8	23.8	83	19.4	0	2	112	0.00	29.873 
01:35	23.6	23.6	23.6	83	19.2	0	2	112	0.00	29.873 
01:40	23.6	23.6	23.6	83	19.2	0	4	90	0.00	29.873 
01:45	23.6	23.6	23.6	83	19.2	1	3	90	0.00	29.864 
01:50	23.6	23.6	23.6	83	19.2	1	2	90	0.00	29.864 
01:55	23.6	23.6	23.6	83	19.2	0	3	90	0.00	29.864 
02:00	23.6	23.6	23.6	83	19.2	1	3	90	0.00	29.856 
02:05	23.6	23.6	23.6	83	19.2	1	3	135	0.00	29.856 
02:10	23.6	23.6	23.6	83	19.2	0	2	135	0.00	29.856 
02:15	23.6	23.6	23.6	83	19.2	1	3	90	0.00	29.845 
02:20	23.6	23.6	23.6	83	19.2	1	3	90	0.00	29.845 
02:25	23.8	23.8	23.8	83	19.4	1	2	135	0.00	29.845 
02:30	23.8	23.8	23.8	83	19.4	0	3	68	0.00	29.841 
02:35	23.8	23.8	23.8	83	19.4	1	4	90	0.00	29.841 
02:40	23.9	23.9	23.9	83	19.5	1	4	135	0.00	29.841 
02:45	23.9	23.9	23.9	83	19.5	1	4	90	0.00	29.825 
02:50	24.1	24.1	24.1	83	19.7	1	3	90	0.00	29.825 
02:55	24.1	24.1	24.1	83	19.7	1	3	90	0.00	29.825 
03:00	24.1	24.1	24.1	84	20.0	1	4	112	0.00	29.824 
03:05	24.2	24.2	24.2	84	20.1	1	3	112	0.00	29.824 
03:10	24.2	24.2	24.2	84	20.1	1	2	112	0.00	29.824 
03:15	24.1	24.1	24.1	84	20.0	1	3	68	0.00	29.813 
03:20	24.1	24.1	24.1	84	20.0	1	3	68	0.00	29.813 
03:25	24.1	24.1	24.1	84	20.0	0	2	68	0.00	29.813 
03:30	24.1	24.1	24.1	84	20.0	0	2	68	0.00	29.806 
03:35	24.1	24.1	24.1	84	20.0	0	2	68	0.00	29.806 
03:40	24.1	24.1	24.1	84	20.0	1	2	68	0.00	29.806 
03:45	24.1	24.1	24.1	84	20.0	1	2	68	0.00	29.800 
03:50	24.2	24.2	24.2	84	20.1	1	3	68	0.00	29.800 
03:55	24.2	24.2	24.2	84	20.1	0	2	68	0.00	29.800 
04:00	24.2	24.2	24.2	84	20.1	1	2	68	0.00	29.790 
04:05	24.2	24.2	24.2	84	20.1	1	2	68	0.00	29.790 
04:10	24.2	24.2	24.2	85	20.4	1	3	68	0.00	29.790 
04:15	24.2	24.2	24.2	85	20.4	0	1	68	0.00	29.785 
04:20	24.2	24.2	24.2	85	20.4	0	1	68	0.00	29.785 
04:25	24.2	24.2	24.2	85	20.4	0	1	68	0.00	29.785 
04:30	24.2	24.2	24.2	85	20.4	0	1	68	0.00	29.781 
04:35	24.4	24.4	24.4	85	20.6	0	2	68	0.00	29.781 
04:40	24.4	24.4	24.4	86	20.8	0	1	68	0.00	29.781 
04:45	24.4	24.4	24.4	86	20.8	0	1	68	0.00	29.769 
04:50	24.5	24.5	24.5	86	20.9	0	1	68	0.00	29.769 
04:55	24.5	24.5	24.5	86	20.9	0	1	68	0.00	29.769 
05:00	24.7	24.7	24.7	86	21.1	0	1	68	0.00	29.763 
05:05	24.7	24.7	24.7	86	21.1	0	2	68	0.00	29.763 
05:10	24.7	24.7	24.7	86	21.1	0	1	68	0.00	29.763 
05:15	24.7	24.7	24.7	86	21.1	0	0	---	0.00	29.771 
05:20	24.7	24.7	24.7	86	21.1	0	0	---	0.00	29.771 
05:25	24.8	24.8	24.8	86	21.2	0	0	---	0.00	29.771 
05:30	24.8	24.8	24.8	86	21.2	0	0	---	0.00	29.773 
05:35	24.8	24.8	24.8	86	21.2	0	0	---	0.00	29.773 
05:40	24.8	24.8	24.8	86	21.2	0	0	---	0.00	29.773 
05:45	25.0	25.0	25.0	87	21.7	0	1	68	0.00	29.766 
05:50	25.0	25.0	25.0	87	21.7	0	0	---	0.00	29.766 
05:55	25.1	25.1	25.1	87	21.8	0	1	68	0.00	29.766 
06:00	25.1	25.1	25.1	87	21.8	0	0	---	0.00	29.763 
06:05	25.1	25.1	25.1	87	21.8	0	0	---	0.00	29.763 
06:10	25.1	25.1	25.1	87	21.8	0	0	---	0.00	29.763 
06:15	25.3	25.3	25.3	87	22.0	0	0	---	0.00	29.764 
06:20	25.3	25.3	25.3	87	22.0	0	0	---	0.00	29.764 
06:25	25.4	25.4	25.4	87	22.1	0	0	---	0.00	29.764 
06:30	25.4	25.4	25.4	87	22.1	0	0	---	0.00	29.759 
06:35	25.4	25.4	25.4	87	22.1	0	0	---	0.00	29.759 
06:40	25.6	25.6	25.6	87	22.3	0	0	---	0.00	29.759 
06:45	25.6	25.6	25.6	87	22.3	0	0	---	0.00	29.759 
06:50	25.6	25.6	25.6	87	22.3	0	0	---	0.00	29.759 
06:55	25.6	25.6	25.6	87	22.3	0	0	---	0.00	29.759 
07:00	25.7	25.7	25.7	87	22.4	0	0	---	0.00	29.759 
07:05	25.7	25.7	25.7	87	22.4	0	0	---	0.00	29.759 
07:10	25.7	25.7	25.7	87	22.4	0	0	---	0.00	29.759 
07:15	25.8	25.8	25.8	87	22.5	0	0	---	0.00	29.756 
07:20	26.0	26.0	26.0	88	22.9	0	0	---	0.00	29.756 
07:25	26.1	26.1	26.1	88	23.0	0	0	---	0.00	29.756 
07:30	26.1	26.1	26.1	88	23.0	0	0	---	0.00	29.756 
07:35	26.3	26.3	26.3	88	23.2	0	0	---	0.00	29.756 
07:40	26.4	26.4	26.4	88	23.3	0	1	68	0.00	29.756 
07:45	26.6	26.6	26.6	88	23.5	0	1	68	0.00	29.769 
07:50	27.0	27.0	27.0	89	24.2	0	2	68	0.00	29.769 
07:55	27.6	27.6	27.6	89	24.8	1	3	248	0.00	29.769 
08:00	28.2	28.2	28.2	89	25.4	1	3	248	0.00	29.769 
08:05	28.8	28.8	28.8	89	26.0	1	3	248	0.00	29.769 
08:10	29.0	29.0	29.0	89	26.2	1	3	248	0.00	29.769 
08:15	29.3	29.3	29.3	89	26.5	1	3	248	0.00	29.775 
08:20	29.4	29.4	29.4	88	26.3	1	3	248	0.00	29.775 
08:25	29.5	29.5	29.5	88	26.4	1	4	248	0.00	29.775 
08:30	29.7	29.7	29.7	88	26.6	1	3	248	0.00	29.779 
08:35	29.8	29.8	29.8	88	26.7	2	4	270	0.00	29.779 
08:40	29.8	29.8	29.8	88	26.7	2	4	248	0.00	29.779 
08:45	29.8	29.8	29.8	87	26.4	2	4	270	0.00	29.783 
08:50	29.8	29.8	29.8	87	26.4	2	3	270	0.00	29.783 
08:55	30.0	30.0	30.0	87	26.6	2	4	270	0.00	29.783 
09:00	30.0	30.0	30.0	87	26.6	2	4	248	0.00	29.791 
09:05	30.0	30.0	30.0	87	26.6	2	3	270	0.00	29.791 
09:10	30.0	30.0	30.0	87	26.6	1	4	248	0.00	29.791 
09:15	30.0	30.0	30.0	87	26.6	1	4	315	0.00	29.796 
09:20	30.0	30.0	30.0	86	26.3	2	4	270	0.00	29.796 
09:25	30.0	30.0	30.0	86	26.3	2	3	292	0.00	29.796 
09:30	30.1	30.1	30.1	86	26.4	1	3	248	0.00	29.810 
09:35	30.1	30.1	30.1	86	26.4	1	3	248	0.00	29.810 
09:40	30.1	30.1	30.1	86	26.4	1	3	270	0.00	29.810 
09:45	30.1	30.1	30.1	86	26.4	1	3	270	0.00	29.814 
09:50	30.1	30.1	30.1	86	26.4	1	2	270	0.00	29.814 
09:55	30.3	30.3	30.3	86	26.6	1	5	270	0.00	29.814 
10:00	30.3	30.3	30.3	86	26.6	2	5	315	0.00	29.829 
10:05	30.3	30.3	30.3	85	26.3	1	4	292	0.00	29.829 
10:10	30.3	30.3	30.3	85	26.3	1	3	292	0.00	29.829 
10:15	30.4	30.4	30.4	85	26.4	1	3	292	0.00	29.840 
10:20	30.4	30.4	30.4	85	26.4	1	3	292	0.00	29.840 
10:25	30.6	30.6	30.6	85	26.6	2	5	248	0.00	29.840 
10:30	30.6	30.6	30.6	85	26.6	1	3	315	0.00	29.852 
10:35	30.6	30.6	30.6	85	26.6	1	3	315	0.00	29.852 
10:40	30.7	30.7	30.7	85	26.7	1	3	270	0.00	29.852 
10:45	30.7	30.7	30.7	84	26.4	2	3	225	0.00	29.858 
10:50	30.7	30.7	30.7	84	26.4	1	3	338	0.00	29.858 
10:55	30.7	30.7	30.7	84	26.4	2	4	270	0.00	29.858 
11:00	30.9	30.9	30.9	84	26.6	1	3	270	0.00	29.873 
11:05	30.9	30.9	30.9	84	26.6	2	3	225	0.00	29.873 
11:10	31.0	31.0	31.0	84	26.7	2	5	225	0.00	29.873 
11:15	31.0	31.0	31.0	84	26.7	2	4	248	0.00	29.890 
11:20	31.2	31.2	31.2	84	26.9	2	4	248	0.00	29.890 
11:25	31.3	31.3	31.3	84	27.0	1	4	248	0.00	29.890 
11:30	31.5	31.5	31.5	84	27.2	2	5	270	0.00	29.884 
11:35	31.5	31.5	31.5	84	27.2	2	4	270	0.00	29.884 
11:40	31.8	31.8	31.8	84	27.5	2	5	338	0.00	29.884 
11:45	31.9	31.9	31.9	84	27.6	3	5	270	0.00	29.887 
11:50	32.1	32.1	32.1	84	27.8	3	5	270	0.00	29.887 
11:55	32.2	32.2	32.2	84	27.9	2	4	270	0.00	29.887 
12:00	32.4	32.4	32.4	84	28.1	2	5	248	0.00	29.886 
12:05	32.4	32.4	32.4	84	28.1	2	5	270	0.00	29.886 
12:10	32.5	32.5	32.5	83	27.9	2	4	270	0.00	29.886 
12:15	32.7	32.7	32.7	83	28.1	3	5	270	0.00	29.890 
12:20	32.5	32.5	32.5	83	27.9	3	4	270	0.00	29.890 
12:25	32.5	32.5	32.5	83	27.9	2	6	270	0.00	29.890 
12:30	32.5	32.5	32.5	82	27.6	3	5	270	0.01	29.903 
12:35	32.4	32.4	32.4	82	27.5	2	6	270	0.00	29.903 
12:40	32.5	32.5	32.5	83	27.9	2	4	292	0.00	29.903 
12:45	32.5	32.5	32.5	82	27.6	2	5	315	0.00	29.904 
12:50	32.7	32.7	32.7	82	27.8	1	3	248	0.00	29.904 
12:55	32.8	32.8	32.8	82	27.9	2	5	270	0.00	29.904 
13:00	32.8	32.8	32.8	82	27.9	2	4	270	0.00	29.906 
13:05	32.8	32.8	32.8	81	27.6	2	4	248	0.00	29.906 
13:10	32.9	32.9	32.9	81	27.7	2	5	270	0.00	29.906 
13:15	32.8	32.8	32.8	81	27.6	3	5	270	0.00	29.907 
13:20	32.8	32.8	32.8	81	27.6	2	4	270	0.00	29.907 
13:25	32.9	32.9	32.9	81	27.7	2	4	270	0.00	29.907 
13:30	32.9	32.9	32.9	81	27.7	2	4	292	0.00	29.903 
13:35	33.1	33.1	33.1	81	27.9	1	3	248	0.00	29.903 
13:40	33.4	33.4	33.4	81	28.2	1	3	248	0.00	29.903 
13:45	33.4	33.4	33.4	80	27.9	1	3	248	0.00	29.904 
13:50	33.5	33.5	33.5	80	28.0	2	4	248	0.00	29.904 
13:55	33.5	33.5	33.5	80	28.0	2	4	248	0.00	29.904 
14:00	33.5	33.5	33.5	79	27.7	2	5	248	0.00	29.908 
14:05	33.5	33.5	33.5	79	27.7	2	4	248	0.00	29.908 
14:10	33.2	33.2	33.2	79	27.4	2	5	270	0.00	29.908 
14:15	33.2	33.2	33.2	79	27.4	2	4	248	0.00	29.907 
14:20	33.4	33.4	33.4	79	27.6	2	5	248	0.00	29.907 
14:25	33.4	33.4	33.4	79	27.6	2	4	248	0.00	29.907 
14:30	33.4	33.4	33.4	79	27.6	2	4	248	0.00	29.919 
14:35	33.5	33.5	33.5	79	27.7	1	4	315	0.00	29.919 
14:40	33.5	33.5	33.5	79	27.7	2	4	270	0.00	29.919 
14:45	33.5	33.5	33.5	79	27.7	1	3	338	0.00	29.931 
14:50	33.5	33.5	33.5	78	27.4	2	5	270	0.00	29.931 
14:55	33.5	33.5	33.5	78	27.4	2	4	248	0.00	29.931 
15:00	33.4	33.4	33.4	77	27.0	2	4	270	0.00	29.934 
15:05	33.4	33.4	33.4	78	27.3	2	4	270	0.00	29.934 
15:10	33.4	33.4	33.4	78	27.3	2	4	248	0.00	29.934 
15:15	33.4	33.4	33.4	78	27.3	2	4	248	0.00	29.950 
15:20	33.2	33.2	33.2	78	27.1	2	4	248	0.00	29.950 
15:25	33.2	33.2	33.2	78	27.1	1	3	270	0.00	29.950 
15:30	33.2	33.2	33.2	78	27.1	2	3	270	0.00	29.951 
15:35	33.2	33.2	33.2	78	27.1	1	3	270	0.00	29.951 
15:40	33.2	33.2	33.2	78	27.1	2	3	270	0.00	29.951 
15:45	33.1	33.1	33.1	78	27.0	1	3	292	0.00	29.946 
15:50	33.2	33.2	33.2	78	27.1	1	3	292	0.00	29.946 
15:55	33.2	33.2	33.2	78	27.1	0	2	0	0.00	29.946 
16:00	33.4	33.4	33.4	78	27.3	1	3	0	0.00	29.953 
16:05	33.4	33.4	33.4	78	27.3	0	1	270	0.00	29.953 
16:10	33.4	33.4	33.4	78	27.3	1	2	270	0.00	29.953 
16:15	33.4	33.4	33.4	78	27.3	1	2	315	0.00	29.959 
16:20	33.4	33.4	33.4	78	27.3	1	3	315	0.00	29.959 
16:25	33.2	33.2	33.2	78	27.1	1	2	315	0.00	29.959 
16:30	33.2	33.2	33.2	78	27.1	1	3	315	0.00	29.977 
16:35	33.2	33.2	33.2	78	27.1	1	3	315	0.00	29.977 
16:40	33.1	33.1	33.1	79	27.3	1	3	248	0.00	29.977 
16:45	33.1	33.1	33.1	79	27.3	1	4	248	0.00	29.984 
16:50	33.1	33.1	33.1	79	27.3	1	3	338	0.00	29.984 
16:55	33.1	33.1	33.1	79	27.3	1	3	315	0.00	29.984 
17:00	33.1	33.1	33.1	79	27.3	1	3	315	0.00	30.003 
17:05	33.1	33.1	33.1	79	27.3	1	2	315	0.00	30.003 
17:10	33.1	33.1	33.1	79	27.3	0	1	315	0.00	30.003 
17:15	32.9	32.9	32.9	79	27.1	0	2	315	0.00	30.002 
17:20	32.9	32.9	32.9	80	27.4	0	2	315	0.00	30.002 
17:25	32.9	32.9	32.9	80	27.4	1	3	315	0.00	30.002 
17:30	32.8	32.8	32.8	80	27.3	0	2	315	0.00	30.008 
17:35	32.8	32.8	32.8	80	27.3	0	1	315	0.00	30.008 
17:40	32.8	32.8	32.8	80	27.3	0	1	315	0.00	30.008 
17:45	32.8	32.8	32.8	80	27.3	0	2	315	0.00	30.012 
17:50	32.7	32.7	32.7	80	27.2	1	2	315	0.00	30.012 
17:55	32.7	32.7	32.7	81	27.5	0	1	315	0.00	30.012 
18:00	32.7	32.7	32.7	81	27.5	0	1	315	0.00	30.020 
18:05	32.7	32.7	32.7	81	27.5	0	1	315	0.00	30.020 
18:10	32.5	32.5	32.5	81	27.3	0	2	315	0.00	30.020 
18:15	32.5	32.5	32.5	81	27.3	0	2	315	0.00	30.017 
18:20	32.5	32.5	32.5	81	27.3	0	0	---	0.00	30.017 
18:25	32.5	32.5	32.5	81	27.3	0	1	315	0.00	30.017 
18:30	32.5	32.5	32.5	81	27.3	0	2	315	0.00	30.031 
18:35	32.4	32.4	32.4	81	27.2	0	2	315	0.00	30.031 
18:40	32.4	32.4	32.4	81	27.2	1	2	315	0.00	30.031 
18:45	32.4	32.4	32.4	80	26.9	1	3	248	0.00	30.044 
18:50	32.4	32.4	32.4	80	26.9	1	2	248	0.00	30.044 
18:55	32.2	32.2	32.2	79	26.4	1	3	315	0.00	30.044 
19:00	32.2	32.2	32.2	79	26.4	0	2	338	0.00	30.048 
19:05	32.1	32.1	32.1	78	26.0	1	3	248	0.00	30.048 
19:10	32.1	32.1	32.1	78	26.0	0	2	248	0.00	30.048 
19:15	32.1	32.1	32.1	78	26.0	1	3	315	0.00	30.048 
19:20	31.9	31.9	31.9	78	25.8	0	2	315	0.00	30.048 
19:25	31.9	31.9	31.9	78	25.8	1	2	315	0.00	30.048 
19:30	31.8	31.8	31.8	78	25.7	1	2	315	0.00	30.052 
19:35	31.8	31.8	31.8	77	25.4	1	3	315	0.00	30.052 
19:40	31.8	31.8	31.8	77	25.4	1	2	270	0.00	30.052 
19:45	31.6	31.6	31.6	77	25.2	1	2	270	0.00	30.066 
19:50	31.6	31.6	31.6	77	25.2	1	3	270	0.00	30.066 
19:55	31.6	31.6	31.6	77	25.2	1	2	248	0.00	30.066 
20:00	31.5	31.5	31.5	76	24.8	1	2	248	0.00	30.066 
20:05	31.5	31.5	31.5	76	24.8	1	2	248	0.00	30.066 
20:10	31.5	31.5	31.5	76	24.8	0	1	248	0.00	30.066 
20:15	31.3	31.3	31.3	76	24.6	0	1	248	0.00	30.064 
20:20	31.3	31.3	31.3	76	24.6	0	3	248	0.00	30.064 
20:25	31.3	31.3	31.3	75	24.3	1	3	248	0.00	30.064 
20:30	31.3	31.3	31.3	75	24.3	1	2	248	0.00	30.073 
20:35	31.2	31.2	31.2	75	24.2	0	2	248	0.00	30.073 
20:40	31.2	31.2	31.2	75	24.2	0	3	248	0.00	30.073 
20:45	31.2	31.2	31.2	75	24.2	0	2	248	0.00	30.075 
20:50	31.2	31.2	31.2	75	24.2	0	2	248	0.00	30.075 
20:55	31.2	31.2	31.2	76	24.5	0	1	248	0.00	30.075 
21:00	31.0	31.0	31.0	75	24.0	0	1	248	0.00	30.075 
21:05	31.0	31.0	31.0	76	24.3	0	1	248	0.00	30.075 
21:10	31.0	31.0	31.0	76	24.3	0	1	248	0.00	30.075 
21:15	31.0	31.0	31.0	76	24.3	0	1	248	0.00	30.076 
21:20	31.0	31.0	31.0	76	24.3	0	0	---	0.00	30.076 
21:25	30.9	30.9	30.9	76	24.2	0	1	248	0.00	30.076 
21:30	30.9	30.9	30.9	76	24.2	0	2	248	0.00	30.076 
21:35	30.9	30.9	30.9	76	24.2	0	1	248	0.00	30.076 
21:40	30.9	30.9	30.9	76	24.2	0	1	248	0.00	30.076 
21:45	30.9	30.9	30.9	76	24.2	0	1	248	0.00	30.075 
21:50	30.9	30.9	30.9	76	24.2	0	2	248	0.00	30.075 
21:55	30.9	30.9	30.9	76	24.2	0	1	248	0.00	30.075 
22:00	30.9	30.9	30.9	76	24.2	0	1	248	0.00	30.074 
22:05	30.9	30.9	30.9	76	24.2	0	0	---	0.00	30.074 
22:10	30.7	30.7	30.7	76	24.0	0	0	---	0.00	30.074 
22:15	30.7	30.7	30.7	76	24.0	0	0	---	0.00	30.070 
22:20	30.7	30.7	30.7	76	24.0	0	0	---	0.00	30.070 
22:25	30.6	30.6	30.6	76	24.0	0	0	---	0.00	30.070 
22:30	30.6	30.6	30.6	77	24.3	0	0	---	0.00	30.072 
22:35	30.6	30.6	30.6	77	24.3	0	0	---	0.00	30.072 
22:40	30.6	30.6	30.6	77	24.3	0	0	---	0.00	30.072 
22:45	30.6	30.6	30.6	77	24.3	0	0	---	0.00	30.068 
22:50	30.6	30.6	30.6	77	24.3	0	0	---	0.00	30.068 
22:55	30.4	30.4	30.4	77	24.1	0	0	---	0.00	30.068 
23:00	30.4	30.4	30.4	78	24.4	0	0	---	0.00	30.066 
23:05	30.3	30.3	30.3	78	24.3	0	0	---	0.00	30.066 
23:10	30.3	30.3	30.3	79	24.6	0	1	248	0.00	30.066 
23:15	30.3	30.3	30.3	79	24.6	0	0	---	0.00	30.058 
23:20	30.3	30.3	30.3	79	24.6	0	0	---	0.00	30.058 
23:25	30.1	30.1	30.1	80	24.7	0	0	---	0.00	30.058 
23:30	30.1	30.1	30.1	80	24.7	0	1	248	0.00	30.065 
23:35	30.1	30.1	30.1	80	24.7	0	1	248	0.00	30.065 
23:40	30.1	30.1	30.1	80	24.7	0	0	---	0.00	30.065 
23:45	30.1	30.1	30.1	80	24.7	0	0	---	0.00	30.071 
23:50	30.1	30.1	30.1	80	24.7	0	1	248	0.00	30.071 
23:55	30.0	30.0	30.0	80	24.6	0	0	---	0.00	30.071 

CoCoRaHS
IN-AL-39
A2 Web Hosting
Creative Commons License
GoDaddy
search engine by freefind advanced

loaded 2018-11-19 19:11:21 • last modified 2010-11-18 10:43:29
Privacy PolicyDisclaimer
• wx.awcolley.com is powered by PmWiki v.2002016 •
• all content (unless otherwise noted) © 2018 A W Colley